sensor_id;sensor_type;location;lat;lon;timestamp;P1;durP1;ratioP1;P2;durP2;ratioP2
27375;SDS011;14844;51.302;6.354;2022-08-19T00:00:35;24.38;;;21.77;;
27375;SDS011;14844;51.302;6.354;2022-08-19T00:03:01;26.38;;;22.58;;
27375;SDS011;14844;51.302;6.354;2022-08-19T00:05:27;25.40;;;22.38;;
27375;SDS011;14844;51.302;6.354;2022-08-19T00:07:53;30.55;;;22.08;;
27375;SDS011;14844;51.302;6.354;2022-08-19T00:10:19;28.55;;;22.75;;
27375;SDS011;14844;51.302;6.354;2022-08-19T00:12:45;25.98;;;21.33;;
27375;SDS011;14844;51.302;6.354;2022-08-19T00:15:12;23.08;;;20.58;;
27375;SDS011;14844;51.302;6.354;2022-08-19T00:17:40;23.67;;;21.17;;
27375;SDS011;14844;51.302;6.354;2022-08-19T00:20:08;24.40;;;21.15;;
27375;SDS011;14844;51.302;6.354;2022-08-19T00:22:36;24.08;;;21.45;;
27375;SDS011;14844;51.302;6.354;2022-08-19T00:25:03;24.38;;;21.65;;
27375;SDS011;14844;51.302;6.354;2022-08-19T00:27:30;26.25;;;21.58;;
27375;SDS011;14844;51.302;6.354;2022-08-19T00:29:56;23.60;;;21.10;;
27375;SDS011;14844;51.302;6.354;2022-08-19T00:32:21;22.98;;;20.60;;
27375;SDS011;14844;51.302;6.354;2022-08-19T00:34:47;24.42;;;21.83;;
27375;SDS011;14844;51.302;6.354;2022-08-19T00:37:12;23.75;;;21.23;;
27375;SDS011;14844;51.302;6.354;2022-08-19T00:39:38;25.48;;;22.38;;
27375;SDS011;14844;51.302;6.354;2022-08-19T00:42:04;27.75;;;24.05;;
27375;SDS011;14844;51.302;6.354;2022-08-19T00:44:31;32.80;;;29.20;;
27375;SDS011;14844;51.302;6.354;2022-08-19T00:46:57;36.67;;;31.67;;
27375;SDS011;14844;51.302;6.354;2022-08-19T00:49:37;33.25;;;28.20;;
27375;SDS011;14844;51.302;6.354;2022-08-19T00:52:20;29.98;;;26.80;;
27375;SDS011;14844;51.302;6.354;2022-08-19T00:55:02;35.97;;;30.90;;
27375;SDS011;14844;51.302;6.354;2022-08-19T00:57:32;29.38;;;26.27;;
27375;SDS011;14844;51.302;6.354;2022-08-19T01:00:03;34.83;;;31.13;;
27375;SDS011;14844;51.302;6.354;2022-08-19T01:02:35;41.30;;;35.90;;
27375;SDS011;14844;51.302;6.354;2022-08-19T01:05:02;35.88;;;31.98;;
27375;SDS011;14844;51.302;6.354;2022-08-19T01:07:31;36.63;;;31.67;;
27375;SDS011;14844;51.302;6.354;2022-08-19T01:09:57;36.00;;;29.50;;
27375;SDS011;14844;51.302;6.354;2022-08-19T01:12:22;39.13;;;33.33;;
27375;SDS011;14844;51.302;6.354;2022-08-19T01:14:48;35.65;;;31.83;;
27375;SDS011;14844;51.302;6.354;2022-08-19T01:17:16;37.65;;;31.90;;
27375;SDS011;14844;51.302;6.354;2022-08-19T01:19:43;35.05;;;31.20;;
27375;SDS011;14844;51.302;6.354;2022-08-19T01:24:49;40.72;;;34.33;;
27375;SDS011;14844;51.302;6.354;2022-08-19T01:27:15;47.80;;;37.65;;
27375;SDS011;14844;51.302;6.354;2022-08-19T01:29:42;42.53;;;36.08;;
27375;SDS011;14844;51.302;6.354;2022-08-19T01:32:11;48.47;;;36.80;;
27375;SDS011;14844;51.302;6.354;2022-08-19T01:34:39;44.03;;;35.85;;
27375;SDS011;14844;51.302;6.354;2022-08-19T01:37:06;38.95;;;34.70;;
27375;SDS011;14844;51.302;6.354;2022-08-19T01:39:35;50.13;;;39.80;;
27375;SDS011;14844;51.302;6.354;2022-08-19T01:42:01;52.50;;;42.53;;
27375;SDS011;14844;51.302;6.354;2022-08-19T01:44:28;60.75;;;46.15;;
27375;SDS011;14844;51.302;6.354;2022-08-19T01:46:53;58.38;;;49.28;;
27375;SDS011;14844;51.302;6.354;2022-08-19T01:49:21;54.90;;;45.20;;
27375;SDS011;14844;51.302;6.354;2022-08-19T01:51:49;57.25;;;47.15;;
27375;SDS011;14844;51.302;6.354;2022-08-19T01:54:16;56.13;;;47.00;;
27375;SDS011;14844;51.302;6.354;2022-08-19T01:56:43;61.45;;;50.83;;
27375;SDS011;14844;51.302;6.354;2022-08-19T01:59:10;77.45;;;55.67;;
27375;SDS011;14844;51.302;6.354;2022-08-19T02:01:39;74.22;;;59.25;;
27375;SDS011;14844;51.302;6.354;2022-08-19T02:04:05;79.63;;;59.95;;
27375;SDS011;14844;51.302;6.354;2022-08-19T02:06:31;77.40;;;58.80;;
27375;SDS011;14844;51.302;6.354;2022-08-19T02:08:57;78.75;;;60.90;;
27375;SDS011;14844;51.302;6.354;2022-08-19T02:11:25;82.97;;;57.72;;
27375;SDS011;14844;51.302;6.354;2022-08-19T02:13:55;69.80;;;55.50;;
27375;SDS011;14844;51.302;6.354;2022-08-19T02:16:20;72.43;;;56.58;;
27375;SDS011;14844;51.302;6.354;2022-08-19T02:18:46;70.40;;;55.85;;
27375;SDS011;14844;51.302;6.354;2022-08-19T02:21:19;73.20;;;57.53;;
27375;SDS011;14844;51.302;6.354;2022-08-19T02:23:46;75.05;;;60.17;;
27375;SDS011;14844;51.302;6.354;2022-08-19T02:26:11;79.68;;;59.88;;
27375;SDS011;14844;51.302;6.354;2022-08-19T02:28:37;75.03;;;58.83;;
27375;SDS011;14844;51.302;6.354;2022-08-19T02:31:03;79.43;;;60.63;;
27375;SDS011;14844;51.302;6.354;2022-08-19T02:33:33;72.65;;;58.83;;
27375;SDS011;14844;51.302;6.354;2022-08-19T02:35:59;75.75;;;59.42;;
27375;SDS011;14844;51.302;6.354;2022-08-19T02:38:27;73.10;;;58.20;;
27375;SDS011;14844;51.302;6.354;2022-08-19T02:41:05;79.63;;;58.58;;
27375;SDS011;14844;51.302;6.354;2022-08-19T02:43:34;75.30;;;57.53;;
27375;SDS011;14844;51.302;6.354;2022-08-19T02:48:40;73.00;;;57.53;;
27375;SDS011;14844;51.302;6.354;2022-08-19T02:51:06;81.03;;;64.55;;
27375;SDS011;14844;51.302;6.354;2022-08-19T02:53:32;87.13;;;63.95;;
27375;SDS011;14844;51.302;6.354;2022-08-19T02:55:58;86.78;;;65.95;;
27375;SDS011;14844;51.302;6.354;2022-08-19T02:58:24;84.95;;;63.63;;
27375;SDS011;14844;51.302;6.354;2022-08-19T03:00:51;79.18;;;60.60;;
27375;SDS011;14844;51.302;6.354;2022-08-19T03:03:18;83.40;;;61.95;;
27375;SDS011;14844;51.302;6.354;2022-08-19T03:05:44;78.35;;;61.40;;
27375;SDS011;14844;51.302;6.354;2022-08-19T03:08:10;85.20;;;66.35;;
27375;SDS011;14844;51.302;6.354;2022-08-19T03:10:45;86.07;;;66.13;;
27375;SDS011;14844;51.302;6.354;2022-08-19T03:13:13;82.03;;;61.95;;
27375;SDS011;14844;51.302;6.354;2022-08-19T03:15:40;84.65;;;62.53;;
27375;SDS011;14844;51.302;6.354;2022-08-19T03:18:08;75.65;;;58.90;;
27375;SDS011;14844;51.302;6.354;2022-08-19T03:20:36;84.55;;;62.33;;
27375;SDS011;14844;51.302;6.354;2022-08-19T03:23:09;75.00;;;60.33;;
27375;SDS011;14844;51.302;6.354;2022-08-19T03:25:37;77.53;;;61.55;;
27375;SDS011;14844;51.302;6.354;2022-08-19T03:30:34;84.05;;;63.83;;
27375;SDS011;14844;51.302;6.354;2022-08-19T03:33:00;90.43;;;67.57;;
27375;SDS011;14844;51.302;6.354;2022-08-19T03:35:26;91.50;;;69.57;;
27375;SDS011;14844;51.302;6.354;2022-08-19T03:37:52;99.55;;;71.32;;
27375;SDS011;14844;51.302;6.354;2022-08-19T03:40:18;104.68;;;74.75;;
27375;SDS011;14844;51.302;6.354;2022-08-19T03:42:43;109.38;;;78.28;;
27375;SDS011;14844;51.302;6.354;2022-08-19T03:45:11;102.82;;;74.10;;
27375;SDS011;14844;51.302;6.354;2022-08-19T03:47:36;119.43;;;81.70;;
27375;SDS011;14844;51.302;6.354;2022-08-19T03:50:02;123.63;;;85.13;;
27375;SDS011;14844;51.302;6.354;2022-08-19T03:52:29;119.25;;;83.35;;
27375;SDS011;14844;51.302;6.354;2022-08-19T03:54:55;117.32;;;83.47;;
27375;SDS011;14844;51.302;6.354;2022-08-19T03:57:20;130.85;;;88.07;;
27375;SDS011;14844;51.302;6.354;2022-08-19T03:59:46;123.25;;;84.70;;
27375;SDS011;14844;51.302;6.354;2022-08-19T04:02:12;116.78;;;83.00;;
27375;SDS011;14844;51.302;6.354;2022-08-19T04:04:39;124.38;;;84.95;;
27375;SDS011;14844;51.302;6.354;2022-08-19T04:07:06;117.28;;;83.78;;
27375;SDS011;14844;51.302;6.354;2022-08-19T04:09:33;116.47;;;81.55;;
27375;SDS011;14844;51.302;6.354;2022-08-19T04:12:01;116.82;;;80.13;;
27375;SDS011;14844;51.302;6.354;2022-08-19T04:14:28;121.07;;;81.90;;
27375;SDS011;14844;51.302;6.354;2022-08-19T04:16:55;126.90;;;84.57;;
27375;SDS011;14844;51.302;6.354;2022-08-19T04:19:21;132.23;;;87.13;;
27375;SDS011;14844;51.302;6.354;2022-08-19T04:21:48;145.60;;;93.85;;
27375;SDS011;14844;51.302;6.354;2022-08-19T04:24:16;156.63;;;97.07;;
27375;SDS011;14844;51.302;6.354;2022-08-19T04:26:42;155.57;;;95.72;;
27375;SDS011;14844;51.302;6.354;2022-08-19T04:29:10;166.20;;;97.00;;
27375;SDS011;14844;51.302;6.354;2022-08-19T04:31:39;167.98;;;98.47;;
27375;SDS011;14844;51.302;6.354;2022-08-19T04:34:06;170.48;;;97.75;;
27375;SDS011;14844;51.302;6.354;2022-08-19T04:36:36;165.30;;;95.82;;
27375;SDS011;14844;51.302;6.354;2022-08-19T04:39:07;175.93;;;99.32;;
27375;SDS011;14844;51.302;6.354;2022-08-19T04:41:36;163.35;;;95.72;;
27375;SDS011;14844;51.302;6.354;2022-08-19T04:44:21;166.18;;;96.13;;
27375;SDS011;14844;51.302;6.354;2022-08-19T04:46:47;165.40;;;96.65;;
27375;SDS011;14844;51.302;6.354;2022-08-19T04:49:14;166.07;;;96.70;;
27375;SDS011;14844;51.302;6.354;2022-08-19T04:51:41;169.98;;;97.75;;
27375;SDS011;14844;51.302;6.354;2022-08-19T04:54:08;166.95;;;95.00;;
27375;SDS011;14844;51.302;6.354;2022-08-19T04:56:34;154.55;;;90.72;;
27375;SDS011;14844;51.302;6.354;2022-08-19T04:59:00;146.93;;;87.53;;
27375;SDS011;14844;51.302;6.354;2022-08-19T05:01:29;146.55;;;87.97;;
27375;SDS011;14844;51.302;6.354;2022-08-19T05:03:57;138.57;;;83.93;;
27375;SDS011;14844;51.302;6.354;2022-08-19T05:06:28;140.35;;;82.57;;
27375;SDS011;14844;51.302;6.354;2022-08-19T05:08:54;126.18;;;78.45;;
27375;SDS011;14844;51.302;6.354;2022-08-19T05:11:24;128.32;;;77.93;;
27375;SDS011;14844;51.302;6.354;2022-08-19T05:13:51;119.75;;;74.82;;
27375;SDS011;14844;51.302;6.354;2022-08-19T05:16:18;116.97;;;72.88;;
27375;SDS011;14844;51.302;6.354;2022-08-19T05:18:44;106.07;;;69.60;;
27375;SDS011;14844;51.302;6.354;2022-08-19T05:21:29;103.38;;;68.00;;
27375;SDS011;14844;51.302;6.354;2022-08-19T05:24:14;98.15;;;66.95;;
27375;SDS011;14844;51.302;6.354;2022-08-19T05:26:41;101.25;;;67.28;;
27375;SDS011;14844;51.302;6.354;2022-08-19T05:29:11;79.87;;;51.80;;
27375;SDS011;14844;51.302;6.354;2022-08-19T05:31:37;97.72;;;65.90;;
27375;SDS011;14844;51.302;6.354;2022-08-19T05:34:03;89.35;;;61.75;;
27375;SDS011;14844;51.302;6.354;2022-08-19T05:36:33;88.70;;;62.13;;
27375;SDS011;14844;51.302;6.354;2022-08-19T05:39:04;89.47;;;62.30;;
27375;SDS011;14844;51.302;6.354;2022-08-19T05:41:31;89.97;;;62.30;;
27375;SDS011;14844;51.302;6.354;2022-08-19T05:43:57;94.18;;;63.17;;
27375;SDS011;14844;51.302;6.354;2022-08-19T05:46:23;83.95;;;60.55;;
27375;SDS011;14844;51.302;6.354;2022-08-19T05:48:49;84.40;;;59.75;;
27375;SDS011;14844;51.302;6.354;2022-08-19T05:51:15;81.03;;;58.22;;
27375;SDS011;14844;51.302;6.354;2022-08-19T05:53:42;76.43;;;57.72;;
27375;SDS011;14844;51.302;6.354;2022-08-19T05:56:11;86.22;;;60.25;;
27375;SDS011;14844;51.302;6.354;2022-08-19T05:58:38;83.38;;;57.67;;
27375;SDS011;14844;51.302;6.354;2022-08-19T06:01:14;78.13;;;56.63;;
27375;SDS011;14844;51.302;6.354;2022-08-19T06:03:40;80.47;;;58.13;;
27375;SDS011;14844;51.302;6.354;2022-08-19T06:06:07;82.28;;;58.67;;
27375;SDS011;14844;51.302;6.354;2022-08-19T06:08:38;86.10;;;58.83;;
27375;SDS011;14844;51.302;6.354;2022-08-19T06:13:42;83.03;;;59.83;;
27375;SDS011;14844;51.302;6.354;2022-08-19T06:16:12;81.57;;;57.08;;
27375;SDS011;14844;51.302;6.354;2022-08-19T06:18:37;80.00;;;56.65;;
27375;SDS011;14844;51.302;6.354;2022-08-19T06:21:03;81.22;;;57.45;;
27375;SDS011;14844;51.302;6.354;2022-08-19T06:23:29;80.30;;;57.47;;
27375;SDS011;14844;51.302;6.354;2022-08-19T06:25:55;85.53;;;59.53;;
27375;SDS011;14844;51.302;6.354;2022-08-19T06:28:21;77.75;;;56.53;;
27375;SDS011;14844;51.302;6.354;2022-08-19T06:30:47;84.78;;;59.33;;
27375;SDS011;14844;51.302;6.354;2022-08-19T06:33:13;82.32;;;58.10;;
27375;SDS011;14844;51.302;6.354;2022-08-19T06:35:42;82.05;;;59.03;;
27375;SDS011;14844;51.302;6.354;2022-08-19T06:38:07;77.00;;;57.60;;
27375;SDS011;14844;51.302;6.354;2022-08-19T06:40:34;82.40;;;60.80;;
27375;SDS011;14844;51.302;6.354;2022-08-19T06:43:01;78.57;;;58.80;;
27375;SDS011;14844;51.302;6.354;2022-08-19T06:45:27;81.13;;;60.00;;
27375;SDS011;14844;51.302;6.354;2022-08-19T06:47:53;82.25;;;59.38;;
27375;SDS011;14844;51.302;6.354;2022-08-19T06:50:22;81.03;;;58.85;;
27375;SDS011;14844;51.302;6.354;2022-08-19T06:52:48;78.30;;;57.20;;
27375;SDS011;14844;51.302;6.354;2022-08-19T06:55:14;75.50;;;56.72;;
27375;SDS011;14844;51.302;6.354;2022-08-19T06:57:40;75.53;;;54.58;;
27375;SDS011;14844;51.302;6.354;2022-08-19T07:00:07;75.68;;;53.67;;
27375;SDS011;14844;51.302;6.354;2022-08-19T07:02:41;75.97;;;54.58;;
27375;SDS011;14844;51.302;6.354;2022-08-19T07:05:08;81.53;;;52.83;;
27375;SDS011;14844;51.302;6.354;2022-08-19T07:07:34;74.50;;;54.20;;
27375;SDS011;14844;51.302;6.354;2022-08-19T07:09:59;80.07;;;55.47;;
27375;SDS011;14844;51.302;6.354;2022-08-19T07:12:27;87.47;;;57.35;;
27375;SDS011;14844;51.302;6.354;2022-08-19T07:14:56;84.57;;;56.78;;
27375;SDS011;14844;51.302;6.354;2022-08-19T07:17:22;84.63;;;58.45;;
27375;SDS011;14844;51.302;6.354;2022-08-19T07:19:48;86.93;;;58.30;;
27375;SDS011;14844;51.302;6.354;2022-08-19T07:22:15;85.97;;;57.42;;
27375;SDS011;14844;51.302;6.354;2022-08-19T07:24:40;84.55;;;56.10;;
27375;SDS011;14844;51.302;6.354;2022-08-19T07:27:06;84.75;;;57.58;;
27375;SDS011;14844;51.302;6.354;2022-08-19T07:29:34;81.78;;;56.08;;
27375;SDS011;14844;51.302;6.354;2022-08-19T07:32:01;78.63;;;53.92;;
27375;SDS011;14844;51.302;6.354;2022-08-19T07:34:28;71.50;;;52.25;;
27375;SDS011;14844;51.302;6.354;2022-08-19T07:36:55;80.90;;;54.45;;
27375;SDS011;14844;51.302;6.354;2022-08-19T07:39:22;79.50;;;52.13;;
27375;SDS011;14844;51.302;6.354;2022-08-19T07:44:19;68.82;;;48.92;;
27375;SDS011;14844;51.302;6.354;2022-08-19T07:46:47;67.90;;;48.00;;
27375;SDS011;14844;51.302;6.354;2022-08-19T07:49:15;67.05;;;47.05;;
27375;SDS011;14844;51.302;6.354;2022-08-19T07:52:04;64.57;;;45.50;;
27375;SDS011;14844;51.302;6.354;2022-08-19T07:54:33;63.97;;;47.25;;
27375;SDS011;14844;51.302;6.354;2022-08-19T07:57:00;62.72;;;45.08;;
27375;SDS011;14844;51.302;6.354;2022-08-19T07:59:27;66.50;;;44.88;;
27375;SDS011;14844;51.302;6.354;2022-08-19T08:01:53;64.28;;;44.80;;
27375;SDS011;14844;51.302;6.354;2022-08-19T08:04:20;59.15;;;43.53;;
27375;SDS011;14844;51.302;6.354;2022-08-19T08:07:05;59.78;;;43.97;;
27375;SDS011;14844;51.302;6.354;2022-08-19T08:09:50;58.83;;;42.90;;
27375;SDS011;14844;51.302;6.354;2022-08-19T08:12:21;56.40;;;41.30;;
27375;SDS011;14844;51.302;6.354;2022-08-19T08:14:54;53.33;;;40.60;;
27375;SDS011;14844;51.302;6.354;2022-08-19T08:17:23;59.03;;;40.80;;
27375;SDS011;14844;51.302;6.354;2022-08-19T08:19:50;54.15;;;39.70;;
27375;SDS011;14844;51.302;6.354;2022-08-19T08:22:17;51.97;;;37.20;;
27375;SDS011;14844;51.302;6.354;2022-08-19T08:25:07;49.53;;;36.97;;
27375;SDS011;14844;51.302;6.354;2022-08-19T08:27:39;53.38;;;35.35;;
27375;SDS011;14844;51.302;6.354;2022-08-19T08:30:07;42.97;;;32.63;;
27375;SDS011;14844;51.302;6.354;2022-08-19T08:32:38;44.58;;;28.95;;
27375;SDS011;14844;51.302;6.354;2022-08-19T08:35:07;41.90;;;30.60;;
27375;SDS011;14844;51.302;6.354;2022-08-19T08:37:36;40.25;;;30.05;;
27375;SDS011;14844;51.302;6.354;2022-08-19T08:40:04;39.05;;;27.30;;
27375;SDS011;14844;51.302;6.354;2022-08-19T08:42:58;34.53;;;26.15;;
27375;SDS011;14844;51.302;6.354;2022-08-19T08:45:32;33.55;;;24.67;;
27375;SDS011;14844;51.302;6.354;2022-08-19T08:48:15;35.47;;;25.15;;
27375;SDS011;14844;51.302;6.354;2022-08-19T08:50:47;33.58;;;23.30;;
27375;SDS011;14844;51.302;6.354;2022-08-19T08:53:17;37.00;;;25.35;;
27375;SDS011;14844;51.302;6.354;2022-08-19T08:55:44;30.92;;;22.48;;
27375;SDS011;14844;51.302;6.354;2022-08-19T08:58:12;28.48;;;21.25;;
27375;SDS011;14844;51.302;6.354;2022-08-19T09:00:46;29.30;;;21.17;;
27375;SDS011;14844;51.302;6.354;2022-08-19T09:03:16;24.25;;;19.27;;
27375;SDS011;14844;51.302;6.354;2022-08-19T09:06:02;24.02;;;15.90;;
27375;SDS011;14844;51.302;6.354;2022-08-19T09:16:42;25.42;;;16.83;;
27375;SDS011;14844;51.302;6.354;2022-08-19T09:19:08;21.80;;;15.80;;
27375;SDS011;14844;51.302;6.354;2022-08-19T09:21:35;22.25;;;17.23;;
27375;SDS011;14844;51.302;6.354;2022-08-19T09:24:02;23.92;;;16.05;;
27375;SDS011;14844;51.302;6.354;2022-08-19T09:26:29;22.90;;;15.25;;
27375;SDS011;14844;51.302;6.354;2022-08-19T09:28:59;21.38;;;15.13;;
27375;SDS011;14844;51.302;6.354;2022-08-19T09:31:27;19.60;;;14.45;;
27375;SDS011;14844;51.302;6.354;2022-08-19T09:33:54;20.83;;;13.55;;
27375;SDS011;14844;51.302;6.354;2022-08-19T09:36:24;15.35;;;11.70;;
27375;SDS011;14844;51.302;6.354;2022-08-19T09:38:54;18.10;;;13.52;;
27375;SDS011;14844;51.302;6.354;2022-08-19T09:41:21;18.48;;;11.80;;
27375;SDS011;14844;51.302;6.354;2022-08-19T09:43:50;20.00;;;11.80;;
27375;SDS011;14844;51.302;6.354;2022-08-19T09:46:17;16.02;;;11.40;;
27375;SDS011;14844;51.302;6.354;2022-08-19T09:48:46;16.85;;;12.18;;
27375;SDS011;14844;51.302;6.354;2022-08-19T09:51:14;21.50;;;12.30;;
27375;SDS011;14844;51.302;6.354;2022-08-19T09:53:42;18.33;;;13.70;;
27375;SDS011;14844;51.302;6.354;2022-08-19T09:56:09;22.75;;;16.33;;
27375;SDS011;14844;51.302;6.354;2022-08-19T09:58:35;20.90;;;15.95;;
27375;SDS011;14844;51.302;6.354;2022-08-19T10:01:02;24.00;;;15.90;;
27375;SDS011;14844;51.302;6.354;2022-08-19T10:03:29;20.67;;;14.98;;
27375;SDS011;14844;51.302;6.354;2022-08-19T10:05:57;32.00;;;14.80;;
27375;SDS011;14844;51.302;6.354;2022-08-19T10:08:25;24.90;;;14.45;;
27375;SDS011;14844;51.302;6.354;2022-08-19T10:10:53;19.30;;;12.32;;
27375;SDS011;14844;51.302;6.354;2022-08-19T10:13:20;27.67;;;14.43;;
27375;SDS011;14844;51.302;6.354;2022-08-19T10:15:50;25.15;;;13.65;;
27375;SDS011;14844;51.302;6.354;2022-08-19T10:18:17;20.83;;;13.82;;
27375;SDS011;14844;51.302;6.354;2022-08-19T10:20:44;23.25;;;13.38;;
27375;SDS011;14844;51.302;6.354;2022-08-19T10:23:11;21.23;;;14.23;;
27375;SDS011;14844;51.302;6.354;2022-08-19T10:25:37;20.55;;;14.57;;
27375;SDS011;14844;51.302;6.354;2022-08-19T10:28:03;18.38;;;13.57;;
27375;SDS011;14844;51.302;6.354;2022-08-19T10:30:31;21.25;;;14.07;;
27375;SDS011;14844;51.302;6.354;2022-08-19T10:32:57;19.45;;;12.00;;
27375;SDS011;14844;51.302;6.354;2022-08-19T10:35:22;18.35;;;12.75;;
27375;SDS011;14844;51.302;6.354;2022-08-19T10:37:49;17.42;;;13.48;;
27375;SDS011;14844;51.302;6.354;2022-08-19T10:40:15;16.05;;;12.43;;
27375;SDS011;14844;51.302;6.354;2022-08-19T10:42:40;17.23;;;12.05;;
27375;SDS011;14844;51.302;6.354;2022-08-19T10:45:06;20.73;;;14.10;;
27375;SDS011;14844;51.302;6.354;2022-08-19T10:47:34;19.23;;;11.48;;
27375;SDS011;14844;51.302;6.354;2022-08-19T10:50:00;19.67;;;12.55;;
27375;SDS011;14844;51.302;6.354;2022-08-19T10:52:45;16.42;;;11.15;;
27375;SDS011;14844;51.302;6.354;2022-08-19T10:55:12;12.88;;;10.45;;
27375;SDS011;14844;51.302;6.354;2022-08-19T10:57:56;16.05;;;10.35;;
27375;SDS011;14844;51.302;6.354;2022-08-19T11:00:22;16.75;;;11.77;;
27375;SDS011;14844;51.302;6.354;2022-08-19T11:02:48;17.67;;;12.45;;
27375;SDS011;14844;51.302;6.354;2022-08-19T11:05:14;17.33;;;11.55;;
27375;SDS011;14844;51.302;6.354;2022-08-19T11:07:40;16.05;;;10.20;;
27375;SDS011;14844;51.302;6.354;2022-08-19T11:10:08;16.98;;;11.82;;
27375;SDS011;14844;51.302;6.354;2022-08-19T11:12:38;16.35;;;11.10;;
27375;SDS011;14844;51.302;6.354;2022-08-19T11:15:05;15.10;;;10.30;;
27375;SDS011;14844;51.302;6.354;2022-08-19T11:17:35;11.30;;;8.50;;
27375;SDS011;14844;51.302;6.354;2022-08-19T11:20:05;12.05;;;7.97;;
27375;SDS011;14844;51.302;6.354;2022-08-19T11:22:31;13.07;;;9.80;;
27375;SDS011;14844;51.302;6.354;2022-08-19T11:24:57;18.13;;;9.32;;
27375;SDS011;14844;51.302;6.354;2022-08-19T11:27:22;14.73;;;9.82;;
27375;SDS011;14844;51.302;6.354;2022-08-19T11:29:48;12.90;;;7.72;;
27375;SDS011;14844;51.302;6.354;2022-08-19T11:32:13;10.75;;;7.32;;
27375;SDS011;14844;51.302;6.354;2022-08-19T11:34:40;13.38;;;8.10;;
27375;SDS011;14844;51.302;6.354;2022-08-19T11:37:06;8.88;;;6.03;;
27375;SDS011;14844;51.302;6.354;2022-08-19T11:39:34;10.68;;;8.32;;
27375;SDS011;14844;51.302;6.354;2022-08-19T11:42:01;12.18;;;7.25;;
27375;SDS011;14844;51.302;6.354;2022-08-19T11:44:48;11.57;;;6.85;;
27375;SDS011;14844;51.302;6.354;2022-08-19T11:47:16;9.90;;;6.30;;
27375;SDS011;14844;51.302;6.354;2022-08-19T11:49:41;11.93;;;7.63;;
27375;SDS011;14844;51.302;6.354;2022-08-19T11:52:07;11.23;;;8.10;;
27375;SDS011;14844;51.302;6.354;2022-08-19T11:54:33;11.38;;;6.50;;
27375;SDS011;14844;51.302;6.354;2022-08-19T11:56:59;9.93;;;5.63;;
27375;SDS011;14844;51.302;6.354;2022-08-19T11:59:27;9.05;;;5.40;;
27375;SDS011;14844;51.302;6.354;2022-08-19T12:01:52;10.43;;;5.50;;
27375;SDS011;14844;51.302;6.354;2022-08-19T12:04:18;10.38;;;5.50;;
27375;SDS011;14844;51.302;6.354;2022-08-19T12:06:43;7.65;;;4.43;;
27375;SDS011;14844;51.302;6.354;2022-08-19T12:09:09;7.43;;;5.00;;
27375;SDS011;14844;51.302;6.354;2022-08-19T12:11:35;9.10;;;5.32;;
27375;SDS011;14844;51.302;6.354;2022-08-19T12:14:03;7.45;;;4.60;;
27375;SDS011;14844;51.302;6.354;2022-08-19T12:16:29;7.03;;;4.97;;
27375;SDS011;14844;51.302;6.354;2022-08-19T12:18:56;8.73;;;5.10;;
27375;SDS011;14844;51.302;6.354;2022-08-19T12:21:25;11.90;;;4.68;;
27375;SDS011;14844;51.302;6.354;2022-08-19T12:23:56;7.60;;;4.45;;
27375;SDS011;14844;51.302;6.354;2022-08-19T12:26:23;8.85;;;5.18;;
27375;SDS011;14844;51.302;6.354;2022-08-19T12:28:51;9.35;;;5.60;;
27375;SDS011;14844;51.302;6.354;2022-08-19T12:31:17;6.32;;;3.95;;
27375;SDS011;14844;51.302;6.354;2022-08-19T12:33:44;6.10;;;3.75;;
27375;SDS011;14844;51.302;6.354;2022-08-19T12:36:10;11.07;;;5.43;;
27375;SDS011;14844;51.302;6.354;2022-08-19T12:38:37;19.52;;;5.05;;
27375;SDS011;14844;51.302;6.354;2022-08-19T12:41:04;8.23;;;4.60;;
27375;SDS011;14844;51.302;6.354;2022-08-19T12:43:32;11.20;;;4.88;;
27375;SDS011;14844;51.302;6.354;2022-08-19T12:46:01;10.68;;;5.45;;
27375;SDS011;14844;51.302;6.354;2022-08-19T12:48:29;11.25;;;4.60;;
27375;SDS011;14844;51.302;6.354;2022-08-19T12:50:54;8.65;;;4.10;;
27375;SDS011;14844;51.302;6.354;2022-08-19T12:53:20;8.20;;;4.47;;
27375;SDS011;14844;51.302;6.354;2022-08-19T12:55:46;9.73;;;5.22;;
27375;SDS011;14844;51.302;6.354;2022-08-19T12:58:11;8.40;;;4.85;;
27375;SDS011;14844;51.302;6.354;2022-08-19T13:00:37;10.00;;;4.25;;
27375;SDS011;14844;51.302;6.354;2022-08-19T13:03:03;10.57;;;4.82;;
27375;SDS011;14844;51.302;6.354;2022-08-19T13:05:30;7.82;;;4.50;;
27375;SDS011;14844;51.302;6.354;2022-08-19T13:07:58;8.75;;;4.63;;
27375;SDS011;14844;51.302;6.354;2022-08-19T13:10:30;8.30;;;4.57;;
27375;SDS011;14844;51.302;6.354;2022-08-19T13:12:59;6.90;;;4.15;;
27375;SDS011;14844;51.302;6.354;2022-08-19T13:15:26;11.65;;;4.07;;
27375;SDS011;14844;51.302;6.354;2022-08-19T13:17:53;6.80;;;3.75;;
27375;SDS011;14844;51.302;6.354;2022-08-19T13:20:21;7.85;;;4.03;;
27375;SDS011;14844;51.302;6.354;2022-08-19T13:22:47;7.80;;;3.60;;
27375;SDS011;14844;51.302;6.354;2022-08-19T13:25:13;10.48;;;5.22;;
27375;SDS011;14844;51.302;6.354;2022-08-19T13:27:41;11.75;;;4.75;;
27375;SDS011;14844;51.302;6.354;2022-08-19T13:30:07;10.57;;;5.75;;
27375;SDS011;14844;51.302;6.354;2022-08-19T13:32:53;9.65;;;4.35;;
27375;SDS011;14844;51.302;6.354;2022-08-19T13:35:40;7.78;;;4.15;;
27375;SDS011;14844;51.302;6.354;2022-08-19T13:38:09;7.70;;;3.92;;
27375;SDS011;14844;51.302;6.354;2022-08-19T13:40:35;5.45;;;3.28;;
27375;SDS011;14844;51.302;6.354;2022-08-19T13:43:02;12.82;;;3.47;;
27375;SDS011;14844;51.302;6.354;2022-08-19T13:45:29;8.90;;;3.78;;
27375;SDS011;14844;51.302;6.354;2022-08-19T13:47:58;7.03;;;3.35;;
27375;SDS011;14844;51.302;6.354;2022-08-19T13:50:25;5.47;;;3.40;;
27375;SDS011;14844;51.302;6.354;2022-08-19T13:52:53;6.20;;;3.75;;
27375;SDS011;14844;51.302;6.354;2022-08-19T13:55:19;9.73;;;3.90;;
27375;SDS011;14844;51.302;6.354;2022-08-19T13:57:46;12.40;;;3.60;;
27375;SDS011;14844;51.302;6.354;2022-08-19T14:00:16;7.38;;;3.70;;
27375;SDS011;14844;51.302;6.354;2022-08-19T14:02:43;7.22;;;3.88;;
27375;SDS011;14844;51.302;6.354;2022-08-19T14:05:11;8.48;;;3.72;;
27375;SDS011;14844;51.302;6.354;2022-08-19T14:07:37;8.70;;;4.20;;
27375;SDS011;14844;51.302;6.354;2022-08-19T14:10:04;10.65;;;4.45;;
27375;SDS011;14844;51.302;6.354;2022-08-19T14:12:31;10.25;;;4.55;;
27375;SDS011;14844;51.302;6.354;2022-08-19T14:14:57;7.97;;;4.18;;
27375;SDS011;14844;51.302;6.354;2022-08-19T14:17:23;8.95;;;4.45;;
27375;SDS011;14844;51.302;6.354;2022-08-19T14:19:49;11.38;;;5.53;;
27375;SDS011;14844;51.302;6.354;2022-08-19T14:22:21;10.85;;;4.50;;
27375;SDS011;14844;51.302;6.354;2022-08-19T14:24:46;11.00;;;5.38;;
27375;SDS011;14844;51.302;6.354;2022-08-19T14:27:12;13.07;;;5.72;;
27375;SDS011;14844;51.302;6.354;2022-08-19T14:29:38;8.98;;;6.15;;
27375;SDS011;14844;51.302;6.354;2022-08-19T14:32:04;10.95;;;6.57;;
27375;SDS011;14844;51.302;6.354;2022-08-19T14:34:29;9.95;;;6.90;;
27375;SDS011;14844;51.302;6.354;2022-08-19T14:36:56;11.68;;;7.45;;
27375;SDS011;14844;51.302;6.354;2022-08-19T14:39:22;9.45;;;6.57;;
27375;SDS011;14844;51.302;6.354;2022-08-19T14:41:48;6.30;;;4.88;;
27375;SDS011;14844;51.302;6.354;2022-08-19T14:44:14;8.82;;;4.88;;
27375;SDS011;14844;51.302;6.354;2022-08-19T14:46:40;7.35;;;5.30;;
27375;SDS011;14844;51.302;6.354;2022-08-19T14:49:05;7.15;;;4.70;;
27375;SDS011;14844;51.302;6.354;2022-08-19T14:51:32;7.45;;;5.53;;